22.0F
Current conditions from King Hill
Updated every 5 minutes
 
  Tuesday March 19, 2019

Observations for Westford

Westford

44° 37' 38"N, 73° 02' 29"W, Elevation 850 ft.
Eastern Time

Hourly observations for the last 72 hours

Date Time Temperature (°F) Humi-
dity

(%)
Wind
(mph)
Pressure Rain (in)
Air Dew 6 Hour 1 Hr 3 Hr 6 Hr Day
Alt
(in)
Sea
Level

(mb)
Max Min
19 01:00 23.6 8.1 51 Calm 30.27 1025.0 0.00
19 00:00 23.5 8.9 53 Calm 30.27 1025.1 0.00
18 23:00 22.7 9.7 57 Calm 30.26 1024.9 0.00
18 22:00 23.3 7.8 51 Calm 30.26 1024.7 0.00
18 21:00 23.6 8.5 52 Calm 30.25 1024.5 0.00
18 20:00 25.0 9.0 32.8 25.0 50 Calm 30.24 1023.9 0.00
18 19:00 27.2 9.1 46 NW 0 G 10 30.22 1023.4 0.00
18 18:00 31.6 12.7 45 NNW 1 G 6 30.21 1022.9 0.00
18 17:00 32.7 13.2 44 NNW 0 G 9 30.19 1022.6 0.00
18 16:00 32.1 12.6 44 NNW 0 G 8 30.19 1022.3 0.00
18 15:00 31.1 11.2 43 W 3 G 7 30.19 1022.5 0.00
18 14:00 29.7 11.4 30.3 15.4 46 NW 0 G 10 30.21 1023.1 0.00
18 13:00 28.8 10.6 46 NW 0 G 10 30.22 1023.4 0.00
18 12:00 25.7 9.6 50 WNW 4 G 11 30.22 1023.5 0.00
18 11:00 24.5 8.5 50 WNW 2 G 12 30.23 1023.6 0.00
18 10:00 23.1 8.9 54 WNW 6 G 15 30.22 1023.5 0.00
18 09:00 20.4 9.1 61 WNW 4 G 9 30.21 1023.1 0.00
18 08:00 15.4 8.6 21.1 14.1 74 SW 0 G 4 30.19 1022.5 0.00
18 07:00 14.3 7.8 75 Calm 30.18 1022.0 0.00
18 06:00 15.1 8.3 74 Calm 30.17 1021.7 0.00
18 05:00 15.6 9.4 76 W 1 G 5 30.15 1021.1 0.00
18 04:00 16.0 9.2 74 Calm 30.15 1021.0 0.00
18 03:00 19.0 10.5 69 WNW 0 G 5 30.15 1020.9 0.00
18 02:00 21.0 13.1 24.2 21.0 71 W 3 G 8 30.14 1020.7 0.00
18 01:00 22.5 14.5 71 WNW 3 G 11 30.14 1020.5 0.00
18 00:00 22.6 15.9 75 NW 2 G 9 30.13 1020.4 0.00
17 23:00 23.4 14.7 69 W 0 G 5 30.12 1020.1 0.00
17 22:00 23.7 14.0 66 WSW 4 G 8 30.12 1020.0 0.00
17 21:00 24.1 13.0 62 W 3 G 9 30.12 1019.9 0.00
17 20:00 22.7 10.5 26.9 22.5 59 Calm 30.11 1019.6 0.00
17 19:00 22.9 9.9 57 Calm 30.10 1019.3 0.00
17 18:00 23.9 10.1 55 WNW 2 G 19 30.09 1019.1 0.00
17 17:00 24.6 13.8 63 W 6 G 15 30.08 1018.8 0.00
17 16:00 26.0 11.6 54 WNW 1 G 18 30.08 1018.7 0.00
17 15:00 25.4 11.5 55 WNW 5 G 15 30.09 1018.9 0.00
17 14:00 23.9 9.7 24.6 18.0 54 WNW 6 G 15 30.10 1019.3 0.00
17 13:00 23.3 9.9 56 WNW 10 G 19 30.11 1019.7 0.00
17 12:00 22.5 9.6 57 WNW 7 G 14 30.12 1019.9 0.00
17 11:00 20.2 10.0 64 W 6 G 13 30.12 1019.9 0.00
17 10:00 19.6 9.0 63 WNW 4 G 18 30.11 1019.8 0.00
17 09:00 18.9 9.8 67 WNW 10 G 18 30.10 1019.5 0.00
17 08:00 18.0 8.9 21.7 17.3 67 WNW 3 G 9 30.08 1018.8 0.00
17 07:00 17.4 7.3 64 W 0 G 2 30.07 1018.4 0.00
17 06:00 17.9 6.0 59 NW 1 G 15 30.05 1017.6 0.00
17 05:00 18.8 11.6 73 NW 4 G 13 30.03 1016.9 0.00
17 04:00 19.5 14.9 82 NW 1 G 6 30.01 1016.3 0.00
17 03:00 21.3 16.1 80 NW 3 G 12 30.00 1016.1 0.00
17 02:00 21.7 18.4 27.9 21.7 87 WNW 6 G 12 29.99 1015.5 0.00
17 01:00 22.9 20.1 89 WNW 5 G 11 29.96 1014.5 0.00
17 00:00 23.6 20.3 87 NW 4 G 9 29.95 1014.4 0.00
16 23:00 24.0 21.5 90 NW 1 G 6 29.94 1014.0 0.00
16 22:00 24.7 21.1 86 WNW 0 G 6 29.94 1013.8 0.00
16 21:00 27.1 19.3 72 NW 4 G 8 29.92 1013.3 0.00
16 20:00 27.9 18.7 32.4 27.9 68 NNW 0 G 8 29.91 1012.8 0.00
16 19:00 29.3 18.6 64 WNW 2 G 12 29.89 1012.4 0.00
16 18:00 30.6 18.0 59 NW 1 G 11 29.88 1011.9 0.00
16 17:00 31.0 18.3 59 W 10 G 15 29.86 1011.3 0.00
16 16:00 32.2 19.1 58 W 4 G 15 29.84 1010.7 0.00
16 15:00 30.8 19.3 62 WNW 8 G 21 29.83 1010.2 0.00
16 14:00 30.7 20.0 33.9 26.7 64 W 8 G 23 29.82 1009.7 0.00
16 13:00 30.0 20.0 66 W 13 G 27 29.81 1009.4 0.00
16 12:00 31.8 23.8 72 NW 9 G 24 29.77 1008.2 0.00
16 11:00 31.8 22.1 67 W 13 G 26 29.75 1007.3 0.00
16 10:00 31.7 24.7 75 W 8 G 14 29.74 1007.0 0.00
16 09:00 32.3 24.6 73 W 10 G 23 29.72 1006.4 0.00
16 08:00 33.7 27.3 40.5 33.7 77 W 9 G 20 29.67 1004.8 0.00
16 07:00 34.9 28.1 76 W 4 G 15 29.65 1004.1 0.00
16 06:00 36.5 30.0 77 WSW 5 G 21 29.64 1003.6 0.00
16 05:00 37.4 30.9 77 WSW 6 G 10 29.61 1002.9 0.00
16 04:00 38.8 31.2 74 WSW 6 G 18 29.61 1002.7 0.00
16 03:00 39.4 31.5 73 WSW 8 G 14 29.61 1002.9 0.00
16 02:00 40.5 32.9 44.9 40.5 74 WSW 9 G 24 29.61 1002.7 0.00

Data generated by WxSolution Version 1.9.1.7, Build 2018.11.24.


 
 
Current Radar Loop:

Copyright © WestfordWeather.net 2007-2019. All rights reserved.